Time;durP1;ratioP1;P1;durP2;ratioP2;P2;SDS_P1;SDS_P2;PMS_P1;PMS_P2;Temp;Humidity;BMP_temperature;BMP_pressure;BME280_temperature;BME280_humidity;BME280_pressure;Samples;Min_cycle;Max_cycle;Signal;HPM_P1;HPM_P2
2021/12/18 00:01:32;;;;;;;16.42;9.20;;;;;;;0.03;100.00;94728.34;5056421;28;20052;-77
2021/12/18 00:03:58;;;;;;;15.73;9.23;;;;;;;-0.15;100.00;94734.81;5056608;28;20025;-77
2021/12/18 00:06:25;;;;;;;16.40;9.20;;;;;;;-0.16;100.00;94733.31;5056212;28;20039;-77
2021/12/18 00:08:51;;;;;;;22.35;10.35;;;;;;;-0.21;100.00;94725.78;5056156;28;20021;-77
2021/12/18 00:11:16;;;;;;;23.92;10.98;;;;;;;-0.08;100.00;94739.25;5054950;28;20115;-77
2021/12/18 00:13:42;;;;;;;17.10;10.02;;;;;;;-0.05;100.00;94739.19;5055065;28;20031;-77
2021/12/18 00:16:08;;;;;;;17.38;8.95;;;;;;;0.01;100.00;94728.03;5056088;28;20529;-77
2021/12/18 00:18:35;;;;;;;18.08;9.02;;;;;;;-0.13;100.00;94734.41;5056272;28;20370;-77
2021/12/18 00:21:01;;;;;;;19.20;10.73;;;;;;;0.04;100.00;94729.88;5056259;28;20092;-77
2021/12/18 00:23:27;;;;;;;20.98;10.32;;;;;;;-0.23;100.00;94723.53;5055873;28;20020;-77
2021/12/18 00:25:53;;;;;;;18.55;10.48;;;;;;;-0.14;100.00;94730.22;5055727;28;20021;-77
2021/12/18 00:28:19;;;;;;;18.50;9.20;;;;;;;-0.06;100.00;94742.25;5055791;28;20122;-76
2021/12/18 00:30:45;;;;;;;17.08;10.05;;;;;;;-0.24;100.00;94730.00;5054662;28;20517;-77
2021/12/18 00:33:11;;;;;;;22.00;11.05;;;;;;;-0.04;100.00;94730.00;5055688;28;20166;-77
2021/12/18 00:35:36;;;;;;;22.00;10.55;;;;;;;-0.17;100.00;94732.53;5055687;28;20377;-77
2021/12/18 00:38:04;;;;;;;15.65;9.38;;;;;;;-0.18;100.00;94735.63;5055854;28;20020;-76
2021/12/18 00:40:43;;;;;;;15.73;9.73;;;;;;;-0.24;100.00;94732.69;5054920;28;20035;-77
2021/12/18 00:43:25;;;;;;;19.38;10.57;;;;;;;-0.35;100.00;94732.88;5055617;28;20051;-77
2021/12/18 00:45:51;;;;;;;19.50;10.48;;;;;;;-0.36;100.00;94730.63;5055609;28;20085;-76
2021/12/18 00:48:17;;;;;;;18.23;10.60;;;;;;;-0.32;100.00;94725.97;5055416;28;20024;-76
2021/12/18 00:50:43;;;;;;;17.65;10.50;;;;;;;-0.19;100.00;94734.88;5055419;28;20108;-77
2021/12/18 00:53:08;;;;;;;17.92;10.50;;;;;;;-0.17;100.00;94731.78;5055526;28;20101;-77
2021/12/18 00:55:36;;;;;;;17.67;10.20;;;;;;;-0.06;100.00;94729.66;5055201;28;20043;-77
2021/12/18 00:58:02;;;;;;;16.13;9.35;;;;;;;-0.08;100.00;94739.25;5055626;28;20024;-76
2021/12/18 01:00:27;;;;;;;18.60;10.25;;;;;;;-0.03;100.00;94742.19;5055468;28;20021;-77
2021/12/18 01:02:58;;;;;;;16.92;9.93;;;;;;;-0.06;100.00;94731.59;5055364;28;20037;-78
2021/12/18 01:05:25;;;;;;;16.98;9.18;;;;;;;-0.02;100.00;94732.28;5055323;28;20028;-77
2021/12/18 01:07:54;;;;;;;18.70;9.68;;;;;;;-0.21;100.00;94736.44;5054915;28;20512;-77
2021/12/18 01:12:50;;;;;;;17.92;9.60;;;;;;;0.14;100.00;94740.31;5055059;28;20032;-77
2021/12/18 01:15:22;;;;;;;15.70;8.40;;;;;;;0.24;100.00;94738.59;5054924;28;20405;-76
2021/12/18 01:23:16;;;;;;;19.20;9.13;;;;;;;0.04;100.00;94735.97;5054767;28;20052;-77
2021/12/18 01:25:43;;;;;;;13.93;8.60;;;;;;;-0.09;100.00;94732.41;5054572;28;20092;-77
2021/12/18 01:28:08;;;;;;;14.65;7.85;;;;;;;-0.14;100.00;94733.63;5055107;28;20036;-77
2021/12/18 01:30:34;;;;;;;15.50;8.75;;;;;;;0.04;100.00;94735.97;5054498;28;20024;-77
2021/12/18 01:33:00;;;;;;;17.60;9.35;;;;;;;0.02;100.00;94738.28;5054437;28;20020;-77
2021/12/18 01:35:25;;;;;;;16.25;8.07;;;;;;;0.05;100.00;94732.13;5054387;28;20021;-77
2021/12/18 01:37:51;;;;;;;15.73;8.55;;;;;;;0.04;100.00;94729.88;5054972;28;20346;-77
2021/12/18 01:40:21;;;;;;;16.65;8.52;;;;;;;0.22;100.00;94729.50;5054325;28;20147;-76
2021/12/18 01:46:05;;;;;;;15.65;8.38;;;;;;;0.07;100.00;94745.81;5054234;28;20035;-76
2021/12/18 01:51:34;;;;;;;14.20;8.35;;;;;;;0.07;100.00;94734.38;5052922;28;20120;-76
2021/12/18 01:53:59;;;;;;;;;;;;;;;-0.29;100.00;94727.81;5054943;28;20373;-76
2021/12/18 01:56:26;;;;;;;17.80;9.80;;;;;;;-0.38;100.00;94727.63;5054059;28;19909;-76
2021/12/18 01:58:53;;;;;;;14.45;8.63;;;;;;;-0.26;100.00;94721.69;5053957;28;20033;-76
2021/12/18 02:01:19;;;;;;;14.98;9.02;;;;;;;-0.22;100.00;94717.03;5054063;28;20349;-77
2021/12/18 02:03:46;;;;;;;14.40;8.85;;;;;;;-0.03;100.00;94720.09;5053005;28;20021;-77
2021/12/18 02:06:12;;;;;;;16.67;8.90;;;;;;;-0.03;100.00;94725.41;5054089;28;20106;-77
2021/12/18 02:08:39;;;;;;;15.40;8.93;;;;;;;-0.17;100.00;94721.88;5053757;28;20453;-76
2021/12/18 02:11:15;;;;;;;15.05;9.15;;;;;;;-0.17;100.00;94727.19;5053449;28;20044;-77
2021/12/18 02:21:58;;;;;;;16.88;9.40;;;;;;;-0.53;100.00;94711.13;5053985;28;20036;-76
2021/12/18 02:24:27;;;;;;;18.70;9.38;;;;;;;-0.52;100.00;94720.63;5053570;28;20029;-77
2021/12/18 02:26:53;;;;;;;18.25;9.48;;;;;;;-0.49;100.00;94716.38;5053836;28;20106;-77
2021/12/18 02:29:18;;;;;;;17.08;9.68;;;;;;;-0.33;100.00;94729.81;5053431;28;20462;-76
2021/12/18 02:31:45;;;;;;;14.88;9.20;;;;;;;-0.46;100.00;94720.91;5053426;28;20060;-77
2021/12/18 02:34:25;;;;;;;16.15;9.15;;;;;;;-0.45;100.00;94711.75;5053774;28;20032;-76
2021/12/18 02:36:50;;;;;;;16.98;9.05;;;;;;;-0.54;100.00;94715.69;5056612;28;20021;-76
2021/12/18 02:39:25;;;;;;;18.38;8.85;;;;;;;-0.34;100.00;94725.66;5056532;28;20098;-76
2021/12/18 02:42:24;;;;;;;14.52;8.65;;;;;;;-0.42;100.00;94721.59;5054466;28;20019;-77
2021/12/18 02:44:43;;;;;;;15.90;8.77;;;;;;;-0.28;100.00;94721.31;5054187;28;20033;-77
2021/12/18 02:47:10;;;;;;;15.48;8.10;;;;;;;-0.22;100.00;94721.59;5053521;28;20033;-76
2021/12/18 02:49:41;;;;;;;14.95;8.98;;;;;;;-0.21;100.00;94720.44;5053149;28;20039;-76
2021/12/18 02:52:06;;;;;;;14.25;8.57;;;;;;;-0.43;100.00;94728.09;5054575;28;20069;-74
2021/12/18 02:54:32;;;;;;;18.92;8.60;;;;;;;-0.43;100.00;94736.84;5054185;28;20117;-75
2021/12/18 02:56:57;;;;;;;17.63;9.15;;;;;;;-0.44;100.00;94739.91;5053914;28;20028;-75
2021/12/18 02:59:24;;;;;;;18.27;9.63;;;;;;;-0.29;100.00;94738.50;5053288;28;20039;-76
2021/12/18 03:01:50;;;;;;;18.02;10.15;;;;;;;-0.60;100.00;94727.25;5052831;28;20040;-77
2021/12/18 03:04:24;;;;;;;19.70;9.38;;;;;;;-0.57;100.00;94740.53;5052848;28;20029;-77
2021/12/18 03:06:55;;;;;;;18.90;10.77;;;;;;;-0.48;100.00;94739.97;5053071;28;20024;-76
2021/12/18 03:27:42;;;;;;;20.25;9.88;;;;;;;-0.60;100.00;94738.69;5052636;28;20033;-76
2021/12/18 03:30:08;;;;;;;17.88;10.60;;;;;;;-0.66;100.00;94740.28;5052569;28;20040;-76
2021/12/18 03:32:33;;;;;;;22.25;11.18;;;;;;;-0.67;100.00;94744.13;5052903;28;20044;-76
2021/12/18 03:34:59;;;;;;;21.95;11.07;;;;;;;-0.80;100.00;94741.31;5052432;28;20051;-76
2021/12/18 03:37:25;;;;;;;22.98;12.23;;;;;;;-0.98;100.00;94746.94;5052438;28;20028;-76
2021/12/18 03:39:50;;;;;;;23.02;13.05;;;;;;;-0.95;100.00;94753.38;5052427;28;20021;-76
2021/12/18 03:42:16;;;;;;;21.77;12.00;;;;;;;-0.89;100.00;94754.38;5052608;28;20047;-77
2021/12/18 03:44:41;;;;;;;28.48;12.15;;;;;;;-0.92;100.00;94763.94;5052690;28;20075;-76
2021/12/18 03:47:07;;;;;;;20.77;11.85;;;;;;;-0.99;100.00;94756.06;5052784;28;20039;-77
2021/12/18 03:49:33;;;;;;;24.23;13.25;;;;;;;-1.04;100.00;94765.28;5051366;28;20029;-77
2021/12/18 03:51:59;;;;;;;23.95;12.13;;;;;;;-0.80;100.00;94759.97;5052814;28;20096;-76
2021/12/18 03:54:25;;;;;;;20.08;12.15;;;;;;;-0.99;100.00;94761.41;5052270;28;20036;-77
2021/12/18 03:56:51;;;;;;;20.25;11.85;;;;;;;-1.01;100.00;94758.38;5052747;28;20031;-77
2021/12/18 03:59:18;;;;;;;21.55;11.75;;;;;;;-0.82;100.00;94766.84;5053194;28;20029;-76
2021/12/18 04:01:43;;;;;;;22.65;12.38;;;;;;;-0.82;100.00;94764.19;5052888;28;20025;-76
2021/12/18 04:04:09;;;;;;;21.50;10.77;;;;;;;-0.89;100.00;94767.72;5052859;28;20040;-77
2021/12/18 04:06:37;;;;;;;21.40;11.13;;;;;;;-0.86;100.00;94767.66;5052486;28;20029;-77
2021/12/18 04:09:03;;;;;;;23.67;9.75;;;;;;;-0.86;100.00;94765.00;5052221;28;20166;-75
2021/12/18 04:11:29;;;;;;;24.77;11.05;;;;;;;-0.80;100.00;94754.63;5051931;28;20478;-75
2021/12/18 04:13:55;;;;;;;16.88;9.48;;;;;;;-0.74;100.00;94750.31;5052247;28;20086;-77
2021/12/18 04:16:21;;;;;;;16.13;9.73;;;;;;;-0.81;100.00;94749.72;5055946;28;20039;-75
2021/12/18 04:18:46;;;;;;;17.13;10.13;;;;;;;-0.83;100.00;94752.78;5055744;28;20028;-76
2021/12/18 04:21:12;;;;;;;17.90;9.63;;;;;;;-0.69;100.00;94762.44;5055765;28;20021;-77
2021/12/18 04:23:37;;;;;;;18.05;8.77;;;;;;;-0.71;100.00;94764.75;5055650;28;20032;-76
2021/12/18 04:26:21;;;;;;;15.13;9.05;;;;;;;-0.70;100.00;94766.25;5056109;28;20040;-76
2021/12/18 04:28:47;;;;;;;20.48;9.13;;;;;;;-0.65;100.00;94776.47;5055549;28;20025;-77
2021/12/18 04:31:13;;;;;;;16.77;8.93;;;;;;;-0.62;100.00;94780.97;5055757;28;20484;-76
2021/12/18 04:33:39;;;;;;;17.75;9.27;;;;;;;-0.68;100.00;94774.63;5055539;28;20091;-76
2021/12/18 04:36:05;;;;;;;17.50;9.68;;;;;;;-0.52;100.00;94777.41;5055900;28;20413;-76
2021/12/18 04:38:31;;;;;;;17.70;8.43;;;;;;;-0.52;100.00;94777.41;5055693;28;20025;-77
2021/12/18 04:40:58;;;;;;;17.05;9.15;;;;;;;-0.61;100.00;94787.81;5054400;28;20079;-76
2021/12/18 04:43:23;;;;;;;19.80;8.55;;;;;;;-0.59;100.00;94782.09;5055612;28;20049;-76
2021/12/18 04:45:49;;;;;;;19.52;9.05;;;;;;;-0.59;100.00;94792.75;5055425;28;20504;-77
2021/12/18 04:48:14;;;;;;;16.52;8.07;;;;;;;-0.56;100.00;94795.38;5054300;28;20025;-75
2021/12/18 04:50:40;;;;;;;16.25;8.55;;;;;;;-0.57;100.00;94785.84;5055215;28;20110;-76
2021/12/18 04:53:05;;;;;;;13.70;8.35;;;;;;;-0.42;100.00;94796.28;5055050;28;20355;-76
2021/12/18 04:55:31;;;;;;;18.10;8.20;;;;;;;-0.37;100.00;94798.47;5055387;28;20052;-76
2021/12/18 04:57:56;;;;;;;19.25;8.48;;;;;;;-0.60;100.00;94794.66;5055291;28;20114;-76
2021/12/18 05:00:29;;;;;;;20.13;8.70;;;;;;;-0.51;100.00;94800.22;5055009;28;20374;-76
2021/12/18 05:02:55;;;;;;;20.13;8.52;;;;;;;-0.49;100.00;94807.06;5055257;28;20029;-76
2021/12/18 05:05:21;;;;;;;19.10;8.50;;;;;;;-0.31;100.00;94817.41;5055123;28;20401;-75
2021/12/18 05:07:46;;;;;;;14.68;7.78;;;;;;;-0.56;100.00;94819.38;5054915;28;20028;-75
2021/12/18 05:10:13;;;;;;;18.27;8.30;;;;;;;-0.59;100.00;94822.81;5054617;28;20454;-75
2021/12/18 05:12:39;;;;;;;25.35;9.70;;;;;;;-0.47;100.00;94824.16;5054982;28;20024;-76
2021/12/18 05:15:24;;;;;;;16.75;8.18;;;;;;;-0.63;100.00;94835.47;5055256;28;20021;-76
2021/12/18 05:17:50;;;;;;;16.48;8.00;;;;;;;-0.79;100.00;94830.78;5055182;28;20032;-76
2021/12/18 05:20:15;;;;;;;13.75;7.63;;;;;;;-0.63;100.00;94830.13;5055096;28;20020;-75
2021/12/18 05:22:41;;;;;;;18.10;7.93;;;;;;;-0.57;100.00;94833.09;5054733;28;20481;-75
2021/12/18 05:25:07;;;;;;;20.13;7.60;;;;;;;-0.63;100.00;94845.38;5054579;28;20056;-75
2021/12/18 05:27:33;;;;;;;14.40;8.18;;;;;;;-0.48;100.00;94841.31;5054460;28;20072;-76
2021/12/18 05:29:59;;;;;;;24.55;8.60;;;;;;;-0.45;100.00;94843.19;5054906;28;20049;-75
2021/12/18 05:32:24;;;;;;;19.67;7.63;;;;;;;-0.37;100.00;94854.47;5054089;28;20053;-76
2021/12/18 05:34:50;;;;;;;17.73;8.35;;;;;;;-0.42;100.00;94849.63;5055447;28;20021;-76
2021/12/18 05:39:41;;;;;;;19.17;8.25;;;;;;;-0.30;100.00;94850.94;5055563;28;20024;-75
2021/12/18 05:42:07;;;;;;;18.52;8.02;;;;;;;-0.52;100.00;94852.06;5054569;28;20150;-75
2021/12/18 05:44:33;;;;;;;16.88;7.80;;;;;;;-0.49;100.00;94860.41;5054660;28;20115;-75
2021/12/18 05:46:58;;;;;;;15.90;8.15;;;;;;;-0.38;100.00;94861.75;5054372;28;20053;-75
2021/12/18 05:49:24;;;;;;;16.55;8.23;;;;;;;-0.32;100.00;94858.63;5054186;28;20102;-76
2021/12/18 05:51:49;;;;;;;22.98;8.25;;;;;;;-0.21;100.00;94854.59;5054261;28;20024;-76
2021/12/18 05:54:15;;;;;;;14.60;6.93;;;;;;;-0.41;100.00;94862.56;5052965;28;20048;-75
2021/12/18 05:56:42;;;;;;;16.92;7.85;;;;;;;-0.43;100.00;94870.19;5054417;28;20025;-76
2021/12/18 05:59:08;;;;;;;15.05;7.78;;;;;;;-0.28;100.00;94870.72;5053778;28;20068;-76
2021/12/18 06:01:34;;;;;;;18.42;8.40;;;;;;;-0.54;100.00;94867.69;5054381;28;20388;-78
2021/12/18 06:04:00;;;;;;;16.13;7.85;;;;;;;-0.60;100.00;94866.66;5054084;28;20052;-79
2021/12/18 06:06:25;;;;;;;15.30;8.40;;;;;;;-0.60;100.00;94868.56;5053950;28;20040;-80
2021/12/18 06:08:52;;;;;;;17.45;8.07;;;;;;;-0.70;100.00;94878.25;5053981;28;20434;-78
2021/12/18 06:11:20;;;;;;;15.50;8.70;;;;;;;-0.67;100.00;94872.09;5053705;28;20501;-77
2021/12/18 06:13:51;;;;;;;15.73;8.63;;;;;;;-0.84;100.00;94867.81;5053786;28;20017;-77
2021/12/18 06:16:19;;;;;;;16.00;8.50;;;;;;;-0.58;100.00;94885.66;5054414;28;20021;-77
2021/12/18 06:18:48;;;;;;;19.27;9.38;;;;;;;-0.94;100.00;94875.53;5053759;28;20588;-77
2021/12/18 06:21:15;;;;;;;16.83;9.60;;;;;;;-0.82;100.00;94886.78;5053956;28;20370;-76
2021/12/18 06:23:42;;;;;;;17.25;8.32;;;;;;;-0.97;100.00;94886.25;5054105;28;20025;-76
2021/12/18 06:26:07;;;;;;;18.55;9.88;;;;;;;-0.88;100.00;94889.91;5053699;28;20024;-77
2021/12/18 06:28:33;;;;;;;20.73;11.25;;;;;;;-1.01;100.00;94896.94;5052583;28;20106;-76
2021/12/18 06:31:00;;;;;;;18.60;9.90;;;;;;;-0.92;100.00;94909.78;5053478;28;20036;-77
2021/12/18 06:33:26;;;;;;;24.83;10.63;;;;;;;-0.78;100.00;94906.16;5053601;28;20059;-77
2021/12/18 06:35:51;;;;;;;26.77;10.50;;;;;;;-0.68;100.00;94907.94;5053645;28;20619;-77
2021/12/18 06:38:17;;;;;;;19.55;10.45;;;;;;;-0.51;100.00;94912.22;5052273;28;20021;-78
2021/12/18 06:40:42;;;;;;;26.35;11.30;;;;;;;-0.58;100.00;94911.59;5052518;28;20025;-77
2021/12/18 06:43:08;;;;;;;18.67;10.90;;;;;;;-0.58;100.00;94919.59;5053558;28;20154;-76
2021/12/18 06:45:34;;;;;;;19.50;10.65;;;;;;;-0.47;100.00;94916.75;5053873;28;20377;-76
2021/12/18 06:48:00;;;;;;;27.75;10.60;;;;;;;-0.39;100.00;94928.84;5051911;28;20020;-76
2021/12/18 06:50:26;;;;;;;20.58;10.73;;;;;;;-0.20;100.00;94920.13;5053028;28;20123;-74
2021/12/18 06:52:52;;;;;;;19.25;9.95;;;;;;;-0.20;100.00;94922.81;5053028;28;20025;-76
2021/12/18 06:55:17;;;;;;;22.33;10.88;;;;;;;-0.18;100.00;94920.50;5053259;28;20096;-76
2021/12/18 06:57:43;;;;;;;20.90;10.85;;;;;;;-0.22;100.00;94927.03;5053162;28;20154;-76
2021/12/18 07:00:11;;;;;;;18.20;10.10;;;;;;;-0.22;100.00;94932.38;5053185;28;20033;-76
2021/12/18 07:02:38;;;;;;;23.40;10.40;;;;;;;-0.25;100.00;94941.19;5052927;28;20163;-77
2021/12/18 07:05:04;;;;;;;22.38;10.25;;;;;;;-0.52;100.00;94933.97;5053132;28;20370;-77
2021/12/18 07:07:29;;;;;;;19.70;10.15;;;;;;;-0.73;100.00;94954.44;5052827;28;20032;-81
2021/12/18 07:09:55;;;;;;;21.45;11.07;;;;;;;-0.72;100.00;94942.63;5052794;28;20029;-79
2021/12/18 07:12:20;;;;;;;21.63;11.07;;;;;;;-0.59;100.00;94953.47;5052585;28;20480;-79
2021/12/18 07:14:46;;;;;;;17.15;10.40;;;;;;;-0.46;100.00;94961.69;5052776;28;20025;-80
2021/12/18 07:17:11;;;;;;;23.67;11.32;;;;;;;-0.33;100.00;94948.53;5052680;28;20150;-81
2021/12/18 07:19:37;;;;;;;22.38;11.00;;;;;;;-0.32;100.00;94943.97;5052607;28;20053;-81
2021/12/18 07:22:03;;;;;;;21.90;10.63;;;;;;;-0.15;100.00;94955.50;5052325;28;20124;-83
2021/12/18 07:24:29;;;;;;;15.68;9.02;;;;;;;-0.02;100.00;94957.19;5053111;28;20032;-84
2021/12/18 07:26:55;;;;;;;14.45;8.60;;;;;;;0.25;100.00;94963.66;5052426;28;20201;-82
2021/12/18 07:29:20;;;;;;;19.35;9.07;;;;;;;0.20;100.00;94956.09;5053201;28;20035;-82
2021/12/18 07:31:46;;;;;;;22.75;9.05;;;;;;;0.23;100.00;94971.28;5053085;28;20383;-82
2021/12/18 07:34:11;;;;;;;18.00;8.68;;;;;;;0.06;100.00;94963.19;5053067;28;20480;-82
2021/12/18 07:36:37;;;;;;;17.13;8.55;;;;;;;0.22;100.00;94959.09;5053121;28;20033;-78
2021/12/18 07:39:04;;;;;;;17.13;8.55;;;;;;;0.36;100.00;94956.19;5051810;28;20084;-79
2021/12/18 07:41:29;;;;;;;15.32;8.10;;;;;;;0.27;100.00;94961.31;5052868;28;20040;-80
2021/12/18 07:43:55;;;;;;;16.95;8.25;;;;;;;0.25;100.00;94958.31;5052714;28;20060;-79
2021/12/18 07:46:21;;;;;;;12.75;6.78;;;;;;;0.31;100.00;94972.69;5052019;28;20447;-78
2021/12/18 07:48:46;;;;;;;13.48;7.28;;;;;;;0.52;100.00;94976.13;5054201;28;20075;-77
2021/12/18 07:51:12;;;;;;;15.93;7.50;;;;;;;0.44;100.00;94988.88;5056577;28;20021;-75
2021/12/18 07:53:37;;;;;;;12.82;7.25;;;;;;;0.36;100.00;94988.25;5056818;28;20035;-77
2021/12/18 07:56:04;;;;;;;14.25;7.50;;;;;;;0.35;100.00;94992.06;5056672;28;20025;-78
2021/12/18 07:58:30;;;;;;;12.05;7.30;;;;;;;0.14;100.00;94993.94;5056484;28;20025;-79
2021/12/18 08:00:56;;;;;;;12.40;7.38;;;;;;;0.08;100.00;95000.91;5056860;28;20107;-80
2021/12/18 08:03:21;;;;;;;12.98;7.50;;;;;;;0.17;100.00;95009.13;5055311;28;20025;-80
2021/12/18 08:05:47;;;;;;;13.95;8.43;;;;;;;0.30;100.00;95013.88;5056772;28;20063;-80
2021/12/18 08:08:12;;;;;;;17.63;8.57;;;;;;;0.13;100.00;95011.09;5056394;28;20362;-79
2021/12/18 08:10:38;;;;;;;14.48;8.70;;;;;;;0.15;100.00;95014.13;5056108;28;20049;-83
2021/12/18 08:13:04;;;;;;;13.73;9.00;;;;;;;0.15;100.00;95014.13;5056139;28;20040;-80
2021/12/18 08:15:29;;;;;;;14.75;8.95;;;;;;;0.04;100.00;95013.56;5056959;28;20486;-77
2021/12/18 08:17:57;;;;;;;16.10;9.13;;;;;;;0.41;100.00;95019.81;5056810;28;20028;-76
2021/12/18 08:20:23;;;;;;;16.83;8.45;;;;;;;0.63;100.00;95025.53;5055937;28;20029;-77
2021/12/18 08:22:49;;;;;;;17.90;9.10;;;;;;;0.41;100.00;95027.84;5054953;28;20036;-77
2021/12/18 08:25:14;;;;;;;15.15;9.13;;;;;;;0.64;100.00;95026.28;5054859;28;20044;-77
2021/12/18 08:27:40;;;;;;;13.70;8.18;;;;;;;0.58;100.00;95022.59;5055275;28;20414;-78
2021/12/18 08:30:06;;;;;;;14.50;8.57;;;;;;;0.82;100.00;95021.38;5056564;28;20025;-77
2021/12/18 08:32:32;;;;;;;16.50;9.35;;;;;;;0.97;100.00;95027.22;5057760;28;20029;-78
2021/12/18 08:34:58;;;;;;;18.00;8.70;;;;;;;1.34;100.00;95032.63;5060310;28;20067;-77
2021/12/18 08:37:23;;;;;;;21.27;8.07;;;;;;;1.47;100.00;95041.53;5058185;28;20055;-78
2021/12/18 08:39:49;;;;;;;12.48;8.00;;;;;;;1.50;100.00;95032.66;5056178;28;20021;-77
2021/12/18 08:42:14;;;;;;;18.02;8.25;;;;;;;1.71;100.00;95036.06;5055706;28;20037;-76
2021/12/18 08:44:40;;;;;;;16.90;8.18;;;;;;;1.61;100.00;95031.69;5055502;28;20458;-77
2021/12/18 08:47:05;;;;;;;18.60;8.95;;;;;;;1.73;100.00;95030.28;5055928;28;20043;-80
2021/12/18 08:49:31;;;;;;;15.27;8.20;;;;;;;1.98;100.00;95027.06;5055464;28;20020;-80
2021/12/18 08:51:57;;;;;;;18.52;8.98;;;;;;;1.62;100.00;95031.28;5055531;28;20087;-79
2021/12/18 08:54:23;;;;;;;14.65;8.75;;;;;;;1.48;100.00;95026.22;5055067;28;20040;-81
2021/12/18 08:56:49;;;;;;;17.02;9.05;;;;;;;1.42;100.00;95023.28;5055746;28;20434;-76
2021/12/18 08:59:14;;;;;;;12.68;7.72;;;;;;;1.52;100.00;95016.94;5055529;28;20036;-77
2021/12/18 09:01:40;;;;;;;21.05;8.40;;;;;;;1.64;100.00;95025.50;5055213;28;20028;-77
2021/12/18 09:04:06;;;;;;;17.02;8.77;;;;;;;1.41;100.00;95024.44;5053953;28;20367;-77
2021/12/18 09:06:32;;;;;;;19.52;10.48;;;;;;;1.25;100.00;95016.38;5054996;28;20032;-77
2021/12/18 09:08:57;;;;;;;14.55;8.98;;;;;;;1.80;100.00;95025.53;5054632;28;20417;-77
2021/12/18 09:11:23;;;;;;;17.88;8.50;;;;;;;2.47;100.00;95026.31;5054283;28;20241;-77
2021/12/18 09:13:49;;;;;;;16.33;8.45;;;;;;;2.51;100.00;95026.97;5054639;28;20024;-77
2021/12/18 09:16:15;;;;;;;15.25;8.82;;;;;;;1.64;100.00;95017.50;5054716;28;20480;-77
2021/12/18 09:18:40;;;;;;;15.88;9.25;;;;;;;2.58;100.00;95020.66;5054677;28;20051;-76
2021/12/18 09:21:06;;;;;;;15.50;9.10;;;;;;;3.73;100.00;95028.25;5054267;28;20040;-70
2021/12/18 09:23:32;;;;;;;17.77;8.55;;;;;;;4.13;100.00;95027.84;5054564;28;20108;-78
2021/12/18 09:25:57;;;;;;;14.48;9.07;;;;;;;4.25;97.21;95030.94;5054686;28;20025;-78
2021/12/18 09:28:23;;;;;;;12.70;8.50;;;;;;;5.35;91.10;95023.00;5053434;28;20028;-78
2021/12/18 09:30:49;;;;;;;18.10;9.10;;;;;;;5.58;89.08;95032.56;5054621;28;20024;-79
2021/12/18 09:33:17;;;;;;;15.32;8.90;;;;;;;5.87;86.57;95028.06;5054315;28;20025;-77
2021/12/18 09:35:44;;;;;;;13.40;8.48;;;;;;;4.19;88.00;95031.47;5054092;28;20056;-77
2021/12/18 09:38:09;;;;;;;13.13;7.45;;;;;;;3.53;92.21;95020.41;5054065;28;20029;-77
2021/12/18 09:40:35;;;;;;;11.73;7.22;;;;;;;3.65;98.30;95027.72;5053963;28;20359;-78
2021/12/18 09:43:01;;;;;;;14.40;7.57;;;;;;;2.84;97.30;95026.91;5052740;28;20434;-78
2021/12/18 09:45:27;;;;;;;13.27;7.53;;;;;;;2.32;100.00;95017.84;5054231;28;20036;-80
2021/12/18 09:47:53;;;;;;;12.63;7.43;;;;;;;2.54;100.00;95016.16;5054079;28;20032;-77
2021/12/18 09:50:23;;;;;;;14.02;7.55;;;;;;;2.44;100.00;95013.72;5053994;28;20025;-77
2021/12/18 09:52:49;;;;;;;11.75;7.10;;;;;;;2.57;100.00;95013.81;5054272;28;20066;-77
2021/12/18 09:55:15;;;;;;;12.23;6.60;;;;;;;2.07;100.00;95021.88;5053070;28;20024;-76
2021/12/18 09:57:41;;;;;;;12.65;6.70;;;;;;;1.90;100.00;95012.34;5054305;28;20021;-77
2021/12/18 10:00:18;;;;;;;12.00;6.70;;;;;;;2.14;100.00;95002.19;5054002;28;20025;-78
2021/12/18 10:02:43;;;;;;;10.85;6.93;;;;;;;1.98;100.00;95008.31;5054425;28;20025;-81
2021/12/18 10:05:25;;;;;;;12.07;6.75;;;;;;;1.77;100.00;95010.31;5054317;28;20055;-81
2021/12/18 10:08:20;;;;;;;14.35;7.40;;;;;;;2.02;100.00;95014.34;5054539;28;20096;-81
2021/12/18 10:11:02;;;;;;;17.08;7.78;;;;;;;1.87;100.00;95003.22;5054465;28;20063;-81
2021/12/18 10:13:28;;;;;;;;;;;;;;;2.32;100.00;95004.47;5054466;28;20071;-79
2021/12/18 10:16:27;;;;;;;49.15;27.58;;;;;;;2.59;100.00;94992.69;5053025;28;19913;-79
2021/12/18 10:18:53;;;;;;;17.00;10.80;;;;;;;3.61;97.84;94994.13;5053284;28;20036;-81
2021/12/18 10:21:25;;;;;;;14.48;7.22;;;;;;;3.78;93.11;94992.84;5053771;28;20056;-80
2021/12/18 10:23:52;;;;;;;16.65;7.65;;;;;;;3.21;96.51;94989.88;5054118;28;20111;-78
2021/12/18 10:26:40;;;;;;;13.15;8.45;;;;;;;3.16;96.11;94993.84;5054004;28;20071;-80
2021/12/18 10:29:22;;;;;;;15.20;8.23;;;;;;;3.12;95.79;94987.06;5053964;28;20025;-82
2021/12/18 10:31:49;;;;;;;17.15;8.70;;;;;;;2.60;99.43;94989.56;5054981;28;20036;-84
2021/12/18 10:34:26;;;;;;;12.82;7.55;;;;;;;2.89;96.05;94991.53;5053002;28;20090;-82
2021/12/18 10:37:16;;;;;;;12.18;6.28;;;;;;;2.46;95.85;94984.59;5053680;28;20059;-79
2021/12/18 10:39:46;;;;;;;11.13;5.28;;;;;;;2.65;94.26;94988.31;5053405;28;20466;-78
2021/12/18 10:42:21;;;;;;;10.80;6.20;;;;;;;2.71;93.31;94978.59;5052413;28;20120;-79
2021/12/18 10:45:06;;;;;;;10.07;6.03;;;;;;;2.54;95.38;94981.31;5053831;28;20029;-78
2021/12/18 10:47:56;;;;;;;17.13;7.85;;;;;;;2.46;94.75;94979.97;5054374;28;20473;-81
2021/12/18 10:50:23;;;;;;;35.47;20.08;;;;;;;2.78;94.13;94970.38;5053989;28;20029;-79
2021/12/18 10:53:14;;;;;;;51.08;30.50;;;;;;;2.96;92.67;94969.88;5054762;28;20036;-79
2021/12/18 10:55:52;;;;;;;12.82;7.65;;;;;;;2.98;91.05;94966.75;5058333;28;20423;-81
2021/12/18 10:58:34;;;;;;;15.63;6.72;;;;;;;2.96;93.90;94967.19;5054438;28;20040;-80
2021/12/18 11:01:15;;;;;;;12.00;7.25;;;;;;;2.29;95.10;94951.72;5052216;28;20040;-78
2021/12/18 11:03:46;;;;;;;11.13;6.43;;;;;;;2.01;94.20;94953.94;5054122;28;20450;-76
2021/12/18 11:06:17;;;;;;;12.13;6.47;;;;;;;2.54;93.10;94967.16;5053140;28;20029;-78
2021/12/18 11:08:53;;;;;;;11.82;6.32;;;;;;;2.84;90.03;94963.28;5053797;28;20025;-79
2021/12/18 11:14:09;;;;;;;10.35;5.90;;;;;;;3.21;90.89;94965.75;5053515;28;20037;-78
2021/12/18 11:16:36;;;;;;;20.55;11.35;;;;;;;3.81;89.98;94975.84;5053559;28;20033;-78
2021/12/18 11:19:07;;;;;;;13.93;7.97;;;;;;;3.53;89.91;94972.84;5053502;28;20062;-78
2021/12/18 11:21:34;;;;;;;13.50;7.50;;;;;;;3.31;90.08;94971.97;5053074;28;20028;-79
2021/12/18 11:24:04;;;;;;;11.07;7.05;;;;;;;2.74;92.09;94967.03;5052819;28;20321;-82
2021/12/18 11:26:41;;;;;;;12.55;6.97;;;;;;;2.72;90.96;94966.69;5053190;28;20486;-80
2021/12/18 11:29:14;;;;;;;9.18;5.63;;;;;;;2.98;89.73;94966.75;5052649;28;20025;-81
2021/12/18 11:31:42;;;;;;;11.25;6.25;;;;;;;2.71;88.28;94962.50;5053296;28;20025;-81
2021/12/18 11:34:08;;;;;;;12.30;6.80;;;;;;;3.08;89.23;94965.72;5061159;28;20032;-82
2021/12/18 11:36:39;;;;;;;13.88;5.78;;;;;;;2.80;88.92;94959.22;5059334;28;20519;-82
2021/12/18 11:39:05;;;;;;;8.75;5.75;;;;;;;2.87;85.60;94962.44;5054583;28;20035;-77
2021/12/18 11:41:31;;;;;;;9.15;5.82;;;;;;;3.15;85.88;94968.19;5052459;28;20033;-76
2021/12/18 11:43:56;;;;;;;7.82;4.90;;;;;;;3.14;85.31;94960.59;5051605;28;20114;-76
2021/12/18 11:46:37;;;;;;;5.75;3.38;;;;;;;3.34;86.94;94963.06;5052228;28;20033;-76
2021/12/18 11:49:10;;;;;;;7.72;3.30;;;;;;;2.68;82.92;94968.72;5053186;28;20029;-78
2021/12/18 11:51:37;;;;;;;5.30;3.30;;;;;;;2.66;82.47;94963.03;5053032;28;20032;-79
2021/12/18 11:54:24;;;;;;;5.13;3.58;;;;;;;2.67;83.75;94959.94;5052878;28;20032;-76
2021/12/18 11:56:50;;;;;;;6.45;3.33;;;;;;;2.69;84.23;94962.19;5052555;28;20033;-76
2021/12/18 11:59:38;;;;;;;6.13;3.10;;;;;;;2.78;85.24;94964.22;5052384;28;20130;-76
2021/12/18 12:02:04;;;;;;;5.68;3.58;;;;;;;3.08;83.97;94965.72;5052830;28;20125;-76
2021/12/18 12:05:03;;;;;;;7.38;3.30;;;;;;;2.51;84.27;94973.38;5051416;28;20112;-76
2021/12/18 12:07:28;;;;;;;4.60;2.83;;;;;;;2.28;84.16;94966.31;5051224;28;20029;-76
2021/12/18 12:10:06;;;;;;;6.25;3.10;;;;;;;2.56;84.03;94964.06;5051141;28;20031;-77
2021/12/18 12:12:51;;;;;;;7.18;3.90;;;;;;;2.51;85.34;94957.28;5052737;28;20028;-77